createdAt,value
2023-03-25T00:00:30.170Z,96541.00
2023-03-25T00:02:57.403Z,96540.00
2023-03-25T00:05:24.677Z,96547.00
2023-03-25T00:07:52.197Z,96533.00
2023-03-25T00:10:19.459Z,96522.00
2023-03-25T00:12:46.857Z,96524.00
2023-03-25T00:15:16.208Z,96516.00
2023-03-25T00:17:44.123Z,96513.00
2023-03-25T00:20:11.585Z,96506.00
2023-03-25T00:22:41.330Z,96508.00
2023-03-25T00:25:09.537Z,96522.00
2023-03-25T00:27:36.807Z,96546.00
2023-03-25T00:30:04.086Z,96545.00
2023-03-25T00:32:31.281Z,96536.00
2023-03-25T00:34:59.791Z,96537.00
2023-03-25T00:37:27.139Z,96544.00
2023-03-25T00:39:54.234Z,96546.00
2023-03-25T00:42:26.115Z,96548.00
2023-03-25T00:44:53.725Z,96533.00
2023-03-25T00:47:21.856Z,96515.00
2023-03-25T00:49:49.304Z,96478.00
2023-03-25T00:52:16.659Z,96501.00
2023-03-25T00:54:43.991Z,96500.00
2023-03-25T00:57:11.421Z,96489.00
2023-03-25T00:59:38.575Z,96483.00
2023-03-25T01:02:06.936Z,96495.00
2023-03-25T01:04:34.750Z,96484.00
2023-03-25T01:07:03.437Z,96483.00
2023-03-25T01:09:31.162Z,96487.00
2023-03-25T01:11:58.362Z,96477.00
2023-03-25T01:14:27.681Z,96485.00
2023-03-25T01:16:54.944Z,96488.00
2023-03-25T01:19:22.947Z,96487.00
2023-03-25T01:21:50.943Z,96485.00
2023-03-25T01:24:18.234Z,96496.00
2023-03-25T01:26:45.941Z,96502.00
2023-03-25T01:29:13.732Z,96494.00
2023-03-25T01:31:41.208Z,96499.00
2023-03-25T01:34:08.690Z,96489.00
2023-03-25T01:36:39.793Z,96491.00
2023-03-25T01:39:07.781Z,96477.00
2023-03-25T01:41:48.526Z,96477.00
2023-03-25T01:44:19.766Z,96455.00
2023-03-25T01:46:49.106Z,96467.00
2023-03-25T01:49:23.494Z,96476.00
2023-03-25T01:51:51.457Z,96487.00
2023-03-25T01:54:18.875Z,96498.00
2023-03-25T01:56:47.128Z,96516.00
2023-03-25T01:59:15.535Z,96520.00
2023-03-25T02:01:45.609Z,96499.00
2023-03-25T02:04:13.901Z,96513.00
2023-03-25T02:06:50.983Z,96519.00
2023-03-25T02:09:18.523Z,96519.00
2023-03-25T02:11:45.919Z,96520.00
2023-03-25T02:14:16.421Z,96514.00
2023-03-25T02:16:49.389Z,96524.00
2023-03-25T02:19:35.511Z,96523.00
2023-03-25T02:22:14.769Z,96520.00
2023-03-25T02:25:01.936Z,96523.00
2023-03-25T02:27:45.987Z,96514.00
2023-03-25T02:30:32.665Z,96513.00
2023-03-25T02:33:04.104Z,96524.00
2023-03-25T02:35:31.322Z,96529.00
2023-03-25T02:38:06.396Z,96523.00
2023-03-25T02:40:38.112Z,96518.00
2023-03-25T02:43:05.996Z,96530.00
2023-03-25T02:45:34.603Z,96526.00
2023-03-25T02:48:03.507Z,96525.00
2023-03-25T02:50:33.237Z,96525.00
2023-03-25T02:53:01.057Z,96534.00
2023-03-25T02:55:30.568Z,96522.00
2023-03-25T02:57:57.831Z,96514.00
2023-03-25T03:00:27.384Z,96521.00
2023-03-25T03:02:59.660Z,96521.00
2023-03-25T03:05:37.573Z,96533.00
2023-03-25T03:08:24.933Z,96525.00
2023-03-25T03:10:51.972Z,96520.00
2023-03-25T03:13:28.258Z,96534.00
2023-03-25T03:16:04.749Z,96515.00
2023-03-25T03:18:51.601Z,96514.00
2023-03-25T03:21:30.036Z,96511.00
2023-03-25T03:23:57.967Z,96522.00
2023-03-25T03:26:40.293Z,96516.00
2023-03-25T03:29:11.998Z,96536.00
2023-03-25T03:32:05.917Z,96519.00
2023-03-25T03:34:41.122Z,96526.00
2023-03-25T03:37:08.265Z,96540.00
2023-03-25T03:39:36.066Z,96535.00
2023-03-25T03:42:14.769Z,96533.00
2023-03-25T03:44:42.835Z,96557.00
2023-03-25T03:47:11.841Z,96546.00
2023-03-25T03:49:39.661Z,96556.00
2023-03-25T03:52:25.539Z,96545.00
2023-03-25T03:54:54.303Z,96545.00
2023-03-25T03:57:32.603Z,96551.00
2023-03-25T04:00:03.876Z,96554.00
2023-03-25T04:02:35.923Z,96562.00
2023-03-25T04:05:03.053Z,96543.00
2023-03-25T04:07:38.990Z,96541.00
2023-03-25T04:10:06.317Z,96560.00
2023-03-25T04:12:34.364Z,96550.00
2023-03-25T04:15:02.478Z,96560.00
2023-03-25T04:17:30.126Z,96562.00
2023-03-25T04:19:57.303Z,96559.00
2023-03-25T04:22:24.618Z,96539.00
2023-03-25T04:24:51.920Z,96547.00
2023-03-25T04:27:19.835Z,96543.00
2023-03-25T04:29:47.748Z,96553.00
2023-03-25T04:32:14.897Z,96553.00
2023-03-25T04:34:42.149Z,96550.00
2023-03-25T04:37:09.229Z,96565.00
2023-03-25T04:39:36.340Z,96570.00
2023-03-25T04:42:03.658Z,96570.00
2023-03-25T04:44:33.609Z,96570.00
2023-03-25T04:47:01.822Z,96571.00
2023-03-25T04:49:28.917Z,96569.00
2023-03-25T04:51:56.940Z,96571.00
2023-03-25T04:54:24.063Z,96561.00
2023-03-25T04:56:51.482Z,96572.00
2023-03-25T04:59:18.846Z,96566.00
2023-03-25T05:01:46.169Z,96575.00
2023-03-25T05:04:14.143Z,96565.00
2023-03-25T05:06:42.664Z,96572.00
2023-03-25T05:09:10.769Z,96573.00
2023-03-25T05:11:39.667Z,96588.00
2023-03-25T05:14:06.826Z,96588.00
2023-03-25T05:16:34.184Z,96588.00
2023-03-25T05:19:03.472Z,96579.00
2023-03-25T05:21:31.650Z,96589.00
2023-03-25T05:24:01.621Z,96579.00
2023-03-25T05:26:34.411Z,96575.00
2023-03-25T05:29:02.215Z,96587.00
2023-03-25T05:31:29.496Z,96584.00
2023-03-25T05:33:56.722Z,96582.00
2023-03-25T05:36:25.182Z,96576.00
2023-03-25T05:38:54.352Z,96586.00
2023-03-25T05:41:22.825Z,96578.00
2023-03-25T05:43:50.906Z,96581.00
2023-03-25T05:46:18.592Z,96590.00
2023-03-25T05:48:45.775Z,96587.00
2023-03-25T05:51:16.821Z,96584.00
2023-03-25T05:53:44.567Z,96589.00
2023-03-25T05:56:11.926Z,96592.00
2023-03-25T05:58:39.323Z,96571.00
2023-03-25T06:01:09.304Z,96580.00
2023-03-25T06:03:42.034Z,96585.00
2023-03-25T06:06:18.923Z,96573.00
2023-03-25T06:08:46.511Z,96568.00
2023-03-25T06:11:14.025Z,96574.00
2023-03-25T06:13:41.383Z,96567.00
2023-03-25T06:16:11.531Z,96568.00
2023-03-25T06:18:38.717Z,96567.00
2023-03-25T06:21:06.163Z,96566.00
2023-03-25T06:23:36.512Z,96571.00
2023-03-25T06:26:04.379Z,96576.00
2023-03-25T06:28:33.545Z,96571.00
2023-03-25T06:31:03.299Z,96563.00
2023-03-25T06:33:43.010Z,96556.00
2023-03-25T06:36:11.791Z,96559.00
2023-03-25T06:38:39.559Z,96554.00
2023-03-25T06:41:07.270Z,96546.00
2023-03-25T06:43:34.657Z,96548.00
2023-03-25T06:46:01.823Z,96556.00
2023-03-25T06:48:28.974Z,96560.00
2023-03-25T06:50:56.179Z,96549.00
2023-03-25T06:53:23.407Z,96553.00
2023-03-25T06:55:50.904Z,96553.00
2023-03-25T06:58:18.186Z,96544.00
2023-03-25T07:00:46.348Z,96539.00
2023-03-25T07:03:13.485Z,96558.00
2023-03-25T07:05:41.285Z,96551.00
2023-03-25T07:08:08.721Z,96542.00
2023-03-25T07:10:35.828Z,96551.00
2023-03-25T07:13:02.912Z,96547.00
2023-03-25T07:15:30.083Z,96538.00
2023-03-25T07:17:57.261Z,96549.00
2023-03-25T07:20:24.421Z,96543.00
2023-03-25T07:22:51.489Z,96559.00
2023-03-25T07:25:18.603Z,96554.00
2023-03-25T07:27:45.719Z,96553.00
2023-03-25T07:30:12.985Z,96553.00
2023-03-25T07:32:40.592Z,96552.00
2023-03-25T07:35:09.408Z,96547.00
2023-03-25T07:37:36.497Z,96537.00
2023-03-25T07:40:03.771Z,96551.00
2023-03-25T07:42:31.258Z,96554.00
2023-03-25T07:44:58.341Z,96552.00
2023-03-25T07:47:25.493Z,96555.00
2023-03-25T07:49:52.607Z,96553.00
2023-03-25T07:52:19.820Z,96562.00
2023-03-25T07:54:46.927Z,96568.00
2023-03-25T07:57:14.084Z,96557.00
2023-03-25T07:59:41.214Z,96561.00
2023-03-25T08:02:09.684Z,96573.00
2023-03-25T08:04:37.153Z,96564.00
2023-03-25T08:07:04.258Z,96560.00
2023-03-25T08:09:31.542Z,96580.00
2023-03-25T08:11:58.634Z,96568.00
2023-03-25T08:14:25.714Z,96560.00
2023-03-25T08:16:53.157Z,96576.00
2023-03-25T08:19:20.318Z,96566.00
2023-03-25T08:21:47.418Z,96585.00
2023-03-25T08:24:14.495Z,96575.00
2023-03-25T08:26:41.730Z,96565.00
2023-03-25T08:29:10.072Z,96569.00
2023-03-25T08:31:38.656Z,96564.00
2023-03-25T08:34:06.022Z,96564.00
2023-03-25T08:36:33.161Z,96560.00
2023-03-25T08:39:01.444Z,96555.00
2023-03-25T08:41:28.563Z,96564.00
2023-03-25T08:43:55.793Z,96565.00
2023-03-25T08:46:23.272Z,96556.00
2023-03-25T08:48:50.467Z,96550.00
2023-03-25T08:51:17.834Z,96560.00
2023-03-25T08:53:44.956Z,96562.00
2023-03-25T08:56:12.131Z,96560.00
2023-03-25T08:58:39.245Z,96556.00
2023-03-25T09:01:06.661Z,96560.00
2023-03-25T09:03:33.905Z,96547.00
2023-03-25T09:06:03.781Z,96560.00
2023-03-25T09:08:30.876Z,96559.00
2023-03-25T09:10:58.006Z,96564.00
2023-03-25T09:13:25.402Z,96563.00
2023-03-25T09:15:52.798Z,96559.00
2023-03-25T09:18:20.490Z,96570.00
2023-03-25T09:20:48.298Z,96575.00
2023-03-25T09:23:15.968Z,96561.00
2023-03-25T09:25:43.172Z,96578.00
2023-03-25T09:28:10.393Z,96564.00
2023-03-25T09:30:37.501Z,96576.00
2023-03-25T09:33:04.664Z,96561.00
2023-03-25T09:35:31.931Z,96575.00
2023-03-25T09:38:06.370Z,96569.00
2023-03-25T09:44:13.260Z,96567.00
2023-03-25T09:46:50.456Z,96568.00
2023-03-25T09:50:00.992Z,96578.00
2023-03-25T09:52:46.918Z,96599.00
2023-03-25T09:55:42.582Z,96599.00
2023-03-25T09:58:30.315Z,96591.00
2023-03-25T10:01:01.439Z,96602.00
2023-03-25T10:03:55.942Z,96597.00
2023-03-25T10:06:32.494Z,96594.00
2023-03-25T10:09:29.228Z,96606.00
2023-03-25T10:12:17.989Z,96605.00
2023-03-25T10:15:13.471Z,96609.00
2023-03-25T10:17:58.884Z,96620.00
2023-03-25T10:20:34.966Z,96611.00
2023-03-25T10:23:11.666Z,96615.00
2023-03-25T10:25:39.375Z,96610.00
2023-03-25T10:28:06.487Z,96611.00
2023-03-25T10:30:41.642Z,96606.00
2023-03-25T10:33:14.466Z,96618.00
2023-03-25T10:35:43.112Z,96612.00
2023-03-25T10:38:18.738Z,96593.00
2023-03-25T10:40:56.628Z,96600.00
2023-03-25T10:43:26.241Z,96607.00
2023-03-25T10:45:55.337Z,96589.00
2023-03-25T10:48:24.120Z,96586.00
2023-03-25T10:50:52.744Z,96588.00
2023-03-25T10:53:24.548Z,96592.00
2023-03-25T10:55:56.797Z,96589.00
2023-03-25T10:58:23.893Z,96579.00
2023-03-25T11:00:51.063Z,96580.00
2023-03-25T11:03:20.743Z,96572.00
2023-03-25T11:05:48.292Z,96586.00
2023-03-25T11:08:24.156Z,96588.00
2023-03-25T11:10:56.969Z,96593.00
2023-03-25T11:13:25.713Z,96592.00
2023-03-25T11:15:54.211Z,96592.00
2023-03-25T11:18:27.608Z,96585.00
2023-03-25T11:21:00.651Z,96591.00
2023-03-25T11:23:29.224Z,96591.00
2023-03-25T11:25:56.735Z,96589.00
2023-03-25T11:28:35.792Z,96581.00
2023-03-25T11:31:18.205Z,96585.00
2023-03-25T11:33:46.625Z,96603.00
2023-03-25T11:36:21.834Z,96588.00
2023-03-25T11:38:53.664Z,96608.00
2023-03-25T11:41:20.865Z,96598.00
2023-03-25T11:43:48.286Z,96599.00
2023-03-25T11:46:18.889Z,96608.00
2023-03-25T11:48:46.742Z,96580.00
2023-03-25T11:51:14.879Z,96600.00
2023-03-25T11:53:49.164Z,96611.00
2023-03-25T11:56:20.504Z,96607.00
2023-03-25T11:58:47.617Z,96612.00
2023-03-25T12:01:25.204Z,96605.00
2023-03-25T12:03:52.544Z,96611.00
2023-03-25T12:06:21.558Z,96610.00
2023-03-25T12:08:49.783Z,96598.00
2023-03-25T12:11:18.927Z,96607.00
2023-03-25T12:13:55.729Z,96597.00
2023-03-25T12:16:41.533Z,96588.00
2023-03-25T12:19:28.511Z,96584.00
2023-03-25T12:21:58.590Z,96589.00
2023-03-25T12:24:28.696Z,96568.00
2023-03-25T12:26:55.767Z,96554.00
2023-03-25T12:29:29.703Z,96536.00
2023-03-25T12:31:59.854Z,96554.00
2023-03-25T12:34:39.808Z,96541.00
2023-03-25T12:37:28.577Z,96539.00
2023-03-25T12:40:18.965Z,96539.00
2023-03-25T12:42:46.223Z,96539.00
2023-03-25T12:45:32.561Z,96548.00
2023-03-25T12:48:03.648Z,96546.00
2023-03-25T12:50:45.466Z,96545.00
2023-03-25T12:53:20.710Z,96547.00
2023-03-25T12:55:56.925Z,96552.00
2023-03-25T12:58:31.398Z,96529.00
2023-03-25T13:01:10.746Z,96570.00
2023-03-25T13:03:37.817Z,96558.00
2023-03-25T13:06:15.356Z,96547.00
2023-03-25T13:08:42.426Z,96546.00
2023-03-25T13:11:12.530Z,96543.00
2023-03-25T13:13:39.763Z,96562.00
2023-03-25T13:16:11.463Z,96555.00
2023-03-25T13:19:08.683Z,96565.00
2023-03-25T13:21:36.509Z,96579.00
2023-03-25T13:24:10.005Z,96570.00
2023-03-25T13:26:37.383Z,96561.00
2023-03-25T13:29:05.835Z,96574.00
2023-03-25T13:31:36.714Z,96565.00
2023-03-25T13:34:07.090Z,96563.00
2023-03-25T13:36:35.678Z,96561.00
2023-03-25T13:39:05.106Z,96559.00
2023-03-25T13:41:42.924Z,96551.00
2023-03-25T13:44:16.042Z,96554.00
2023-03-25T13:46:44.168Z,96568.00
2023-03-25T13:49:14.747Z,96555.00
2023-03-25T13:51:41.841Z,96548.00
2023-03-25T13:54:23.165Z,96529.00
2023-03-25T13:56:57.330Z,96542.00
2023-03-25T13:59:26.088Z,96544.00
2023-03-25T14:01:57.409Z,96536.00
2023-03-25T14:04:46.961Z,96556.00
2023-03-25T14:07:16.971Z,96551.00
2023-03-25T14:10:02.792Z,96567.00
2023-03-25T14:12:31.560Z,96573.00
2023-03-25T14:15:05.542Z,96569.00
2023-03-25T14:17:39.975Z,96566.00
2023-03-25T14:20:16.747Z,96579.00
2023-03-25T14:23:24.114Z,96575.00
2023-03-25T14:26:04.868Z,96565.00
2023-03-25T14:28:58.121Z,96563.00
2023-03-25T14:31:45.227Z,96577.00
2023-03-25T14:34:40.680Z,96575.00
2023-03-25T14:37:35.264Z,96569.00
2023-03-25T14:43:56.988Z,96578.00
2023-03-25T14:46:44.918Z,96584.00
2023-03-25T14:49:32.458Z,96580.00
2023-03-25T14:52:19.467Z,96586.00
2023-03-25T14:54:59.245Z,96577.00
2023-03-25T14:57:37.939Z,96569.00
2023-03-25T15:00:18.097Z,96578.00
2023-03-25T15:02:45.624Z,96575.00
2023-03-25T15:05:32.536Z,96560.00
2023-03-25T15:08:06.595Z,96544.00
2023-03-25T15:10:38.427Z,96536.00
2023-03-25T15:13:06.734Z,96551.00
2023-03-25T15:15:52.672Z,96549.00
2023-03-25T15:18:35.030Z,96548.00
2023-03-25T15:21:03.136Z,96554.00
2023-03-25T15:23:33.688Z,96555.00
2023-03-25T15:26:00.907Z,96548.00
2023-03-25T15:28:43.282Z,96541.00
2023-03-25T15:31:25.593Z,96540.00
2023-03-25T15:33:57.945Z,96537.00
2023-03-25T15:36:34.186Z,96532.00
2023-03-25T15:39:19.582Z,96539.00
2023-03-25T15:42:02.986Z,96539.00
2023-03-25T15:44:48.703Z,96531.00
2023-03-25T15:47:22.363Z,96543.00
2023-03-25T15:50:12.847Z,96555.00
2023-03-25T15:52:43.010Z,96547.00
2023-03-25T15:55:18.041Z,96543.00
2023-03-25T15:57:53.488Z,96541.00
2023-03-25T16:00:22.956Z,96542.00
2023-03-25T16:02:51.468Z,96544.00
2023-03-25T16:05:18.713Z,96538.00
2023-03-25T16:07:46.374Z,96534.00
2023-03-25T16:10:16.336Z,96542.00
2023-03-25T16:12:44.287Z,96539.00
2023-03-25T16:15:13.960Z,96552.00
2023-03-25T16:17:41.197Z,96546.00
2023-03-25T16:20:09.855Z,96552.00
2023-03-25T16:22:37.787Z,96557.00
2023-03-25T16:25:12.422Z,96572.00
2023-03-25T16:27:43.134Z,96551.00
2023-03-25T16:30:21.967Z,96561.00
2023-03-25T16:32:49.169Z,96557.00
2023-03-25T16:35:26.664Z,96556.00
2023-03-25T16:37:57.078Z,96543.00
2023-03-25T16:40:26.536Z,96543.00
2023-03-25T16:42:54.405Z,96552.00
2023-03-25T16:45:21.530Z,96558.00
2023-03-25T16:47:50.016Z,96575.00
2023-03-25T16:50:18.999Z,96566.00
2023-03-25T16:52:46.207Z,96573.00
2023-03-25T16:55:17.285Z,96556.00
2023-03-25T16:57:45.907Z,96569.00
2023-03-25T17:00:18.776Z,96573.00
2023-03-25T17:02:48.436Z,96567.00
2023-03-25T17:05:18.955Z,96557.00
2023-03-25T17:07:48.063Z,96560.00
2023-03-25T17:10:22.769Z,96570.00
2023-03-25T17:12:53.415Z,96595.00
2023-03-25T17:15:20.937Z,96587.00
2023-03-25T17:17:51.286Z,96578.00
2023-03-25T17:20:20.291Z,96579.00
2023-03-25T17:22:56.565Z,96587.00
2023-03-25T17:25:28.823Z,96588.00
2023-03-25T17:27:56.832Z,96583.00
2023-03-25T17:30:43.562Z,96585.00
2023-03-25T17:33:15.615Z,96591.00
2023-03-25T17:35:43.561Z,96594.00
2023-03-25T17:38:17.997Z,96597.00
2023-03-25T17:40:45.103Z,96596.00
2023-03-25T17:43:17.290Z,96602.00
2023-03-25T17:45:46.621Z,96606.00
2023-03-25T17:48:15.546Z,96600.00
2023-03-25T17:50:49.627Z,96600.00
2023-03-25T17:53:16.998Z,96608.00
2023-03-25T17:55:44.472Z,96603.00
2023-03-25T17:58:11.663Z,96606.00
2023-03-25T18:00:38.847Z,96601.00
2023-03-25T18:03:17.696Z,96594.00
2023-03-25T18:05:45.708Z,96599.00
2023-03-25T18:08:13.331Z,96598.00
2023-03-25T18:10:40.628Z,96603.00
2023-03-25T18:13:08.740Z,96604.00
2023-03-25T18:15:38.203Z,96598.00
2023-03-25T18:18:07.376Z,96607.00
2023-03-25T18:20:35.512Z,96604.00
2023-03-25T18:23:02.726Z,96617.00
2023-03-25T18:25:31.681Z,96611.00
2023-03-25T18:27:59.531Z,96619.00
2023-03-25T18:30:28.218Z,96617.00
2023-03-25T18:32:55.767Z,96609.00
2023-03-25T18:35:23.192Z,96618.00
2023-03-25T18:37:50.386Z,96614.00
2023-03-25T18:40:23.372Z,96616.00
2023-03-25T18:42:51.416Z,96615.00
2023-03-25T18:45:18.989Z,96616.00
2023-03-25T18:47:46.227Z,96613.00
2023-03-25T18:50:18.100Z,96622.00
2023-03-25T18:52:45.622Z,96618.00
2023-03-25T18:55:13.253Z,96616.00
2023-03-25T18:57:42.313Z,96635.00
2023-03-25T19:00:24.744Z,96621.00
2023-03-25T19:02:52.362Z,96623.00
2023-03-25T19:05:20.282Z,96611.00
2023-03-25T19:07:47.577Z,96622.00
2023-03-25T19:10:15.546Z,96626.00
2023-03-25T19:12:44.321Z,96625.00
2023-03-25T19:15:12.607Z,96623.00
2023-03-25T19:17:39.811Z,96626.00
2023-03-25T19:20:07.659Z,96617.00
2023-03-25T19:22:35.068Z,96623.00
2023-03-25T19:25:02.259Z,96611.00
2023-03-25T19:27:29.520Z,96609.00
2023-03-25T19:29:56.931Z,96613.00
2023-03-25T19:32:24.083Z,96600.00
2023-03-25T19:34:54.032Z,96592.00
2023-03-25T19:37:21.337Z,96587.00
2023-03-25T19:39:49.609Z,96592.00
2023-03-25T19:42:16.713Z,96601.00
2023-03-25T19:44:44.620Z,96603.00
2023-03-25T19:47:13.228Z,96609.00
2023-03-25T19:49:40.501Z,96631.00
2023-03-25T19:52:07.911Z,96636.00
2023-03-25T19:54:35.103Z,96657.00
2023-03-25T19:57:02.330Z,96671.00
2023-03-25T19:59:29.463Z,96668.00
2023-03-25T20:01:57.090Z,96677.00
2023-03-25T20:04:24.348Z,96654.00
2023-03-25T20:06:51.464Z,96663.00
2023-03-25T20:09:18.625Z,96658.00
2023-03-25T20:11:45.811Z,96630.00
2023-03-25T20:14:13.066Z,96633.00
2023-03-25T20:16:40.389Z,96639.00
2023-03-25T20:19:07.536Z,96641.00
2023-03-25T20:21:34.699Z,96654.00
2023-03-25T20:24:01.962Z,96654.00
2023-03-25T20:26:29.093Z,96658.00
2023-03-25T20:28:56.539Z,96657.00
2023-03-25T20:31:24.217Z,96658.00
2023-03-25T20:33:51.664Z,96651.00
2023-03-25T20:36:19.505Z,96644.00
2023-03-25T20:38:56.483Z,96645.00
2023-03-25T20:41:25.672Z,96641.00
2023-03-25T20:43:52.787Z,96623.00
2023-03-25T20:46:23.775Z,96631.00
2023-03-25T20:48:51.048Z,96635.00
2023-03-25T20:51:18.331Z,96641.00
2023-03-25T20:53:45.760Z,96641.00
2023-03-25T20:56:12.878Z,96639.00
2023-03-25T20:58:39.956Z,96638.00
2023-03-25T21:01:07.836Z,96649.00
2023-03-25T21:03:34.999Z,96635.00
2023-03-25T21:06:10.373Z,96646.00
2023-03-25T21:08:48.032Z,96640.00
2023-03-25T21:11:15.633Z,96649.00
2023-03-25T21:13:42.837Z,96639.00
2023-03-25T21:16:09.973Z,96629.00
2023-03-25T21:18:37.067Z,96629.00
2023-03-25T21:21:04.236Z,96624.00
2023-03-25T21:23:31.987Z,96629.00
2023-03-25T21:26:03.389Z,96626.00
2023-03-25T21:28:31.929Z,96633.00
2023-03-25T21:31:06.456Z,96630.00
2023-03-25T21:33:34.028Z,96630.00
2023-03-25T21:36:01.666Z,96618.00
2023-03-25T21:38:29.558Z,96636.00
2023-03-25T21:41:00.826Z,96634.00
2023-03-25T21:43:28.171Z,96630.00
2023-03-25T21:45:55.606Z,96625.00
2023-03-25T21:48:23.954Z,96622.00
2023-03-25T21:50:56.375Z,96617.00
2023-03-25T21:53:24.660Z,96619.00
2023-03-25T21:55:55.625Z,96626.00
2023-03-25T21:58:23.489Z,96607.00
2023-03-25T22:00:57.689Z,96612.00
2023-03-25T22:03:29.940Z,96604.00
2023-03-25T22:06:02.122Z,96604.00
2023-03-25T22:08:29.514Z,96608.00
2023-03-25T22:11:06.983Z,96597.00
2023-03-25T22:13:34.148Z,96590.00
2023-03-25T22:16:01.517Z,96595.00
2023-03-25T22:18:28.776Z,96597.00
2023-03-25T22:21:04.771Z,96599.00
2023-03-25T22:23:31.954Z,96597.00
2023-03-25T22:25:59.042Z,96598.00
2023-03-25T22:28:26.328Z,96590.00
2023-03-25T22:30:53.524Z,96597.00
2023-03-25T22:33:21.341Z,96595.00
2023-03-25T22:35:51.130Z,96596.00
2023-03-25T22:38:18.794Z,96590.00
2023-03-25T22:40:45.895Z,96587.00
2023-03-25T22:43:13.047Z,96590.00
2023-03-25T22:45:40.204Z,96580.00
2023-03-25T22:48:07.475Z,96587.00
2023-03-25T22:50:34.645Z,96599.00
2023-03-25T22:53:02.042Z,96597.00
2023-03-25T22:55:29.347Z,96600.00
2023-03-25T22:57:56.455Z,96606.00
2023-03-25T23:00:25.168Z,96599.00
2023-03-25T23:02:52.315Z,96597.00
2023-03-25T23:05:19.539Z,96601.00
2023-03-25T23:07:46.677Z,96596.00
2023-03-25T23:10:13.793Z,96599.00
2023-03-25T23:12:40.902Z,96586.00
2023-03-25T23:15:08.186Z,96575.00
2023-03-25T23:17:35.416Z,96583.00
2023-03-25T23:20:06.186Z,96571.00
2023-03-25T23:22:33.351Z,96565.00
2023-03-25T23:25:00.493Z,96553.00
2023-03-25T23:27:29.588Z,96557.00
2023-03-25T23:29:56.731Z,96548.00
2023-03-25T23:32:23.928Z,96556.00
2023-03-25T23:34:51.201Z,96554.00
2023-03-25T23:37:18.330Z,96544.00
2023-03-25T23:39:46.165Z,96539.00
2023-03-25T23:42:13.308Z,96542.00
2023-03-25T23:44:40.420Z,96539.00
2023-03-25T23:47:07.555Z,96526.00
2023-03-25T23:49:38.274Z,96533.00
2023-03-25T23:52:10.606Z,96533.00
2023-03-25T23:54:38.549Z,96536.00
2023-03-25T23:57:05.922Z,96532.00
2023-03-25T23:59:33.046Z,96534.00
